sensor_id;sensor_type;location;lat;lon;timestamp;temperature;humidity
8709;DHT22;4391;48.678;9.280;2023-06-22T00:02:01;19.70;99.90
8709;DHT22;4391;48.678;9.280;2023-06-22T00:04:28;19.70;99.90
8709;DHT22;4391;48.678;9.280;2023-06-22T00:06:54;19.70;99.90
8709;DHT22;4391;48.678;9.280;2023-06-22T00:09:21;19.60;99.90
8709;DHT22;4391;48.678;9.280;2023-06-22T00:11:49;19.60;99.90
8709;DHT22;4391;48.678;9.280;2023-06-22T00:14:16;19.60;99.90
8709;DHT22;4391;48.678;9.280;2023-06-22T00:16:43;19.50;99.90
8709;DHT22;4391;48.678;9.280;2023-06-22T00:19:14;19.50;99.90
8709;DHT22;4391;48.678;9.280;2023-06-22T00:21:41;19.50;99.90
8709;DHT22;4391;48.678;9.280;2023-06-22T00:24:08;19.50;99.90
8709;DHT22;4391;48.678;9.280;2023-06-22T00:26:34;19.50;99.90
8709;DHT22;4391;48.678;9.280;2023-06-22T00:29:03;19.50;99.90
8709;DHT22;4391;48.678;9.280;2023-06-22T00:31:29;19.60;99.90
8709;DHT22;4391;48.678;9.280;2023-06-22T00:33:56;19.50;99.90
8709;DHT22;4391;48.678;9.280;2023-06-22T00:36:23;19.60;99.90
8709;DHT22;4391;48.678;9.280;2023-06-22T00:38:50;19.50;99.90
8709;DHT22;4391;48.678;9.280;2023-06-22T00:41:17;19.60;99.90
8709;DHT22;4391;48.678;9.280;2023-06-22T00:43:44;19.60;99.90
8709;DHT22;4391;48.678;9.280;2023-06-22T00:46:13;19.50;99.90
8709;DHT22;4391;48.678;9.280;2023-06-22T00:48:40;19.50;99.90
8709;DHT22;4391;48.678;9.280;2023-06-22T00:51:07;19.50;99.90
8709;DHT22;4391;48.678;9.280;2023-06-22T00:53:34;19.50;99.90
8709;DHT22;4391;48.678;9.280;2023-06-22T00:56:02;19.50;99.90
8709;DHT22;4391;48.678;9.280;2023-06-22T00:58:30;19.50;99.90
8709;DHT22;4391;48.678;9.280;2023-06-22T01:00:56;19.40;99.90
8709;DHT22;4391;48.678;9.280;2023-06-22T01:03:25;19.40;99.90
8709;DHT22;4391;48.678;9.280;2023-06-22T01:05:54;19.20;99.90
8709;DHT22;4391;48.678;9.280;2023-06-22T01:08:31;19.20;99.90
8709;DHT22;4391;48.678;9.280;2023-06-22T01:11:03;19.20;99.90
8709;DHT22;4391;48.678;9.280;2023-06-22T01:13:36;19.30;99.90
8709;DHT22;4391;48.678;9.280;2023-06-22T01:16:08;19.30;99.90
8709;DHT22;4391;48.678;9.280;2023-06-22T01:18:41;19.20;99.90
8709;DHT22;4391;48.678;9.280;2023-06-22T01:21:10;19.20;99.90
8709;DHT22;4391;48.678;9.280;2023-06-22T01:23:51;19.20;99.90
8709;DHT22;4391;48.678;9.280;2023-06-22T01:26:25;19.10;99.90
8709;DHT22;4391;48.678;9.280;2023-06-22T01:28:57;19.10;99.90
8709;DHT22;4391;48.678;9.280;2023-06-22T01:31:27;19.10;99.90
8709;DHT22;4391;48.678;9.280;2023-06-22T01:33:59;19.20;99.90
8709;DHT22;4391;48.678;9.280;2023-06-22T01:36:27;19.10;99.90
8709;DHT22;4391;48.678;9.280;2023-06-22T01:38:56;19.10;99.90
8709;DHT22;4391;48.678;9.280;2023-06-22T01:41:25;19.00;99.90
8709;DHT22;4391;48.678;9.280;2023-06-22T01:43:53;19.00;99.90
8709;DHT22;4391;48.678;9.280;2023-06-22T01:46:23;19.00;99.90
8709;DHT22;4391;48.678;9.280;2023-06-22T01:48:50;18.90;99.90
8709;DHT22;4391;48.678;9.280;2023-06-22T01:51:18;18.90;99.90
8709;DHT22;4391;48.678;9.280;2023-06-22T01:53:44;18.90;99.90
8709;DHT22;4391;48.678;9.280;2023-06-22T01:56:13;18.90;99.90
8709;DHT22;4391;48.678;9.280;2023-06-22T01:58:55;19.00;99.90
8709;DHT22;4391;48.678;9.280;2023-06-22T02:01:30;19.20;99.90
8709;DHT22;4391;48.678;9.280;2023-06-22T02:04:03;19.20;99.90
8709;DHT22;4391;48.678;9.280;2023-06-22T02:06:34;19.20;99.90
8709;DHT22;4391;48.678;9.280;2023-06-22T02:09:07;19.10;99.90
8709;DHT22;4391;48.678;9.280;2023-06-22T02:11:36;19.10;99.90
8709;DHT22;4391;48.678;9.280;2023-06-22T02:14:04;19.00;99.90
8709;DHT22;4391;48.678;9.280;2023-06-22T02:16:33;18.90;99.90
8709;DHT22;4391;48.678;9.280;2023-06-22T02:19:01;18.90;99.90
8709;DHT22;4391;48.678;9.280;2023-06-22T02:21:30;18.80;99.90
8709;DHT22;4391;48.678;9.280;2023-06-22T02:23:57;18.80;99.90
8709;DHT22;4391;48.678;9.280;2023-06-22T02:26:24;18.70;99.90
8709;DHT22;4391;48.678;9.280;2023-06-22T02:28:52;18.70;99.90
8709;DHT22;4391;48.678;9.280;2023-06-22T02:31:19;18.70;99.90
8709;DHT22;4391;48.678;9.280;2023-06-22T02:33:47;18.70;99.90
8709;DHT22;4391;48.678;9.280;2023-06-22T02:36:14;18.70;99.90
8709;DHT22;4391;48.678;9.280;2023-06-22T02:38:41;18.70;99.90
8709;DHT22;4391;48.678;9.280;2023-06-22T02:41:11;18.70;99.90
8709;DHT22;4391;48.678;9.280;2023-06-22T02:43:38;18.60;99.90
8709;DHT22;4391;48.678;9.280;2023-06-22T02:46:05;18.70;99.90
8709;DHT22;4391;48.678;9.280;2023-06-22T02:48:32;18.70;99.90
8709;DHT22;4391;48.678;9.280;2023-06-22T02:51:00;18.60;99.90
8709;DHT22;4391;48.678;9.280;2023-06-22T02:53:27;18.60;99.90
8709;DHT22;4391;48.678;9.280;2023-06-22T02:55:54;18.50;99.90
8709;DHT22;4391;48.678;9.280;2023-06-22T02:58:20;18.40;99.90
8709;DHT22;4391;48.678;9.280;2023-06-22T03:00:50;18.50;99.90
8709;DHT22;4391;48.678;9.280;2023-06-22T03:03:18;18.50;99.90
8709;DHT22;4391;48.678;9.280;2023-06-22T03:05:45;18.50;99.90
8709;DHT22;4391;48.678;9.280;2023-06-22T03:08:13;18.50;99.90
8709;DHT22;4391;48.678;9.280;2023-06-22T03:10:40;18.40;99.90
8709;DHT22;4391;48.678;9.280;2023-06-22T03:13:07;18.40;99.90
8709;DHT22;4391;48.678;9.280;2023-06-22T03:15:33;18.30;99.90
8709;DHT22;4391;48.678;9.280;2023-06-22T03:18:00;18.40;99.90
8709;DHT22;4391;48.678;9.280;2023-06-22T03:20:27;18.30;99.90
8709;DHT22;4391;48.678;9.280;2023-06-22T03:23:01;18.30;99.90
8709;DHT22;4391;48.678;9.280;2023-06-22T03:25:29;18.20;99.90
8709;DHT22;4391;48.678;9.280;2023-06-22T03:27:56;18.20;99.90
8709;DHT22;4391;48.678;9.280;2023-06-22T03:30:23;18.20;99.90
8709;DHT22;4391;48.678;9.280;2023-06-22T03:32:50;18.10;99.90
8709;DHT22;4391;48.678;9.280;2023-06-22T03:35:16;18.10;99.90
8709;DHT22;4391;48.678;9.280;2023-06-22T03:37:43;18.10;99.90
8709;DHT22;4391;48.678;9.280;2023-06-22T03:40:11;18.10;99.90
8709;DHT22;4391;48.678;9.280;2023-06-22T03:42:39;18.00;99.90
8709;DHT22;4391;48.678;9.280;2023-06-22T03:45:07;18.00;99.90
8709;DHT22;4391;48.678;9.280;2023-06-22T03:47:34;18.00;99.90
8709;DHT22;4391;48.678;9.280;2023-06-22T03:50:01;18.00;99.90
8709;DHT22;4391;48.678;9.280;2023-06-22T03:52:29;18.00;99.90
8709;DHT22;4391;48.678;9.280;2023-06-22T03:54:56;18.00;99.90
8709;DHT22;4391;48.678;9.280;2023-06-22T03:57:22;18.00;99.90
8709;DHT22;4391;48.678;9.280;2023-06-22T03:59:51;18.00;99.90
8709;DHT22;4391;48.678;9.280;2023-06-22T04:02:17;18.10;99.90
8709;DHT22;4391;48.678;9.280;2023-06-22T04:04:44;18.10;99.90
8709;DHT22;4391;48.678;9.280;2023-06-22T04:07:11;18.10;99.90
8709;DHT22;4391;48.678;9.280;2023-06-22T04:09:38;18.20;99.90
8709;DHT22;4391;48.678;9.280;2023-06-22T04:12:05;18.20;99.90
8709;DHT22;4391;48.678;9.280;2023-06-22T04:14:32;18.30;99.90
8709;DHT22;4391;48.678;9.280;2023-06-22T04:17:01;18.30;99.90
8709;DHT22;4391;48.678;9.280;2023-06-22T04:19:28;18.40;99.90
8709;DHT22;4391;48.678;9.280;2023-06-22T04:21:55;18.40;99.90
8709;DHT22;4391;48.678;9.280;2023-06-22T04:24:22;18.50;99.90
8709;DHT22;4391;48.678;9.280;2023-06-22T04:26:48;18.60;99.90
8709;DHT22;4391;48.678;9.280;2023-06-22T04:29:20;18.70;99.90
8709;DHT22;4391;48.678;9.280;2023-06-22T04:31:54;18.70;99.90
8709;DHT22;4391;48.678;9.280;2023-06-22T04:34:24;18.80;99.90
8709;DHT22;4391;48.678;9.280;2023-06-22T04:36:52;18.90;99.90
8709;DHT22;4391;48.678;9.280;2023-06-22T04:39:19;18.90;99.90
8709;DHT22;4391;48.678;9.280;2023-06-22T04:41:46;19.00;99.90
8709;DHT22;4391;48.678;9.280;2023-06-22T04:44:14;19.10;99.90
8709;DHT22;4391;48.678;9.280;2023-06-22T04:46:49;19.20;99.90
8709;DHT22;4391;48.678;9.280;2023-06-22T04:49:20;19.20;99.90
8709;DHT22;4391;48.678;9.280;2023-06-22T04:51:49;19.30;99.90
8709;DHT22;4391;48.678;9.280;2023-06-22T04:54:17;19.40;99.90
8709;DHT22;4391;48.678;9.280;2023-06-22T04:56:44;19.50;99.90
8709;DHT22;4391;48.678;9.280;2023-06-22T04:59:12;19.50;99.90
8709;DHT22;4391;48.678;9.280;2023-06-22T05:01:39;19.60;98.60
8709;DHT22;4391;48.678;9.280;2023-06-22T05:04:06;19.70;99.90
8709;DHT22;4391;48.678;9.280;2023-06-22T05:06:33;19.80;99.10
8709;DHT22;4391;48.678;9.280;2023-06-22T05:09:01;19.90;94.20
8709;DHT22;4391;48.678;9.280;2023-06-22T05:11:28;20.00;81.90
8709;DHT22;4391;48.678;9.280;2023-06-22T05:13:55;20.10;76.80
8709;DHT22;4391;48.678;9.280;2023-06-22T05:16:23;20.30;65.90
8709;DHT22;4391;48.678;9.280;2023-06-22T05:18:52;20.40;53.70
8709;DHT22;4391;48.678;9.280;2023-06-22T05:21:22;20.40;39.20
8709;DHT22;4391;48.678;9.280;2023-06-22T05:23:49;20.50;32.40
8709;DHT22;4391;48.678;9.280;2023-06-22T05:26:18;20.60;29.70
8709;DHT22;4391;48.678;9.280;2023-06-22T05:28:44;20.70;11.50
8709;DHT22;4391;48.678;9.280;2023-06-22T05:31:12;20.80;1.00
8709;DHT22;4391;48.678;9.280;2023-06-22T05:33:40;20.80;1.00
8709;DHT22;4391;48.678;9.280;2023-06-22T05:36:07;20.90;1.00
8709;DHT22;4391;48.678;9.280;2023-06-22T05:38:35;21.00;1.00
8709;DHT22;4391;48.678;9.280;2023-06-22T05:41:02;21.20;1.00
8709;DHT22;4391;48.678;9.280;2023-06-22T05:43:30;21.40;1.00
8709;DHT22;4391;48.678;9.280;2023-06-22T05:45:57;21.40;1.00
8709;DHT22;4391;48.678;9.280;2023-06-22T05:48:24;21.50;1.00
8709;DHT22;4391;48.678;9.280;2023-06-22T05:50:51;21.60;1.00
8709;DHT22;4391;48.678;9.280;2023-06-22T05:53:18;21.80;1.00
8709;DHT22;4391;48.678;9.280;2023-06-22T05:55:45;21.90;1.00
8709;DHT22;4391;48.678;9.280;2023-06-22T05:58:12;22.00;1.00
8709;DHT22;4391;48.678;9.280;2023-06-22T06:00:41;22.20;99.90
8709;DHT22;4391;48.678;9.280;2023-06-22T06:03:09;22.30;99.90
8709;DHT22;4391;48.678;9.280;2023-06-22T06:05:37;22.40;99.90
8709;DHT22;4391;48.678;9.280;2023-06-22T06:08:05;22.40;1.00
8709;DHT22;4391;48.678;9.280;2023-06-22T06:10:33;22.50;56.40
8709;DHT22;4391;48.678;9.280;2023-06-22T06:13:00;22.60;1.00
8709;DHT22;4391;48.678;9.280;2023-06-22T06:15:29;22.70;1.00
8709;DHT22;4391;48.678;9.280;2023-06-22T06:17:58;22.70;99.90
8709;DHT22;4391;48.678;9.280;2023-06-22T06:20:28;22.80;99.90
8709;DHT22;4391;48.678;9.280;2023-06-22T06:22:55;22.90;1.00
8709;DHT22;4391;48.678;9.280;2023-06-22T06:25:22;22.90;99.90
8709;DHT22;4391;48.678;9.280;2023-06-22T06:27:50;23.00;1.00
8709;DHT22;4391;48.678;9.280;2023-06-22T06:30:18;23.00;1.00
8709;DHT22;4391;48.678;9.280;2023-06-22T06:32:45;23.10;99.90
8709;DHT22;4391;48.678;9.280;2023-06-22T06:35:14;23.20;99.90
8709;DHT22;4391;48.678;9.280;2023-06-22T06:37:43;23.30;99.90
8709;DHT22;4391;48.678;9.280;2023-06-22T06:40:11;23.40;59.30
8709;DHT22;4391;48.678;9.280;2023-06-22T06:42:39;23.50;1.00
8709;DHT22;4391;48.678;9.280;2023-06-22T06:45:08;23.50;59.40
8709;DHT22;4391;48.678;9.280;2023-06-22T06:47:34;23.70;99.90
8709;DHT22;4391;48.678;9.280;2023-06-22T06:50:02;23.80;1.00
8709;DHT22;4391;48.678;9.280;2023-06-22T06:52:30;23.90;99.90
8709;DHT22;4391;48.678;9.280;2023-06-22T06:54:58;24.10;99.90
8709;DHT22;4391;48.678;9.280;2023-06-22T06:57:25;24.10;99.90
8709;DHT22;4391;48.678;9.280;2023-06-22T06:59:54;24.30;99.90
8709;DHT22;4391;48.678;9.280;2023-06-22T07:02:21;24.40;1.00
8709;DHT22;4391;48.678;9.280;2023-06-22T07:04:48;24.50;1.00
8709;DHT22;4391;48.678;9.280;2023-06-22T07:07:15;24.70;99.90
8709;DHT22;4391;48.678;9.280;2023-06-22T07:09:43;24.90;99.90
8709;DHT22;4391;48.678;9.280;2023-06-22T07:12:10;25.10;99.90
8709;DHT22;4391;48.678;9.280;2023-06-22T07:14:37;25.20;99.90
8709;DHT22;4391;48.678;9.280;2023-06-22T07:17:04;25.40;99.90
8709;DHT22;4391;48.678;9.280;2023-06-22T07:19:33;25.60;1.00
8709;DHT22;4391;48.678;9.280;2023-06-22T07:22:00;25.70;1.00
8709;DHT22;4391;48.678;9.280;2023-06-22T07:24:27;25.80;1.00
8709;DHT22;4391;48.678;9.280;2023-06-22T07:26:55;26.00;1.00
8709;DHT22;4391;48.678;9.280;2023-06-22T07:29:24;26.10;1.00
8709;DHT22;4391;48.678;9.280;2023-06-22T07:31:52;26.40;1.00
8709;DHT22;4391;48.678;9.280;2023-06-22T07:34:22;26.50;1.00
8709;DHT22;4391;48.678;9.280;2023-06-22T07:36:48;26.80;1.00
8709;DHT22;4391;48.678;9.280;2023-06-22T07:39:15;27.10;99.90
8709;DHT22;4391;48.678;9.280;2023-06-22T07:41:42;27.20;99.90
8709;DHT22;4391;48.678;9.280;2023-06-22T07:44:10;27.50;99.90
8709;DHT22;4391;48.678;9.280;2023-06-22T07:46:37;27.70;99.90
8709;DHT22;4391;48.678;9.280;2023-06-22T07:49:04;28.00;99.90
8709;DHT22;4391;48.678;9.280;2023-06-22T07:51:33;28.20;99.90
8709;DHT22;4391;48.678;9.280;2023-06-22T07:54:00;28.30;99.90
8709;DHT22;4391;48.678;9.280;2023-06-22T07:56:27;28.50;99.90
8709;DHT22;4391;48.678;9.280;2023-06-22T07:58:54;28.60;99.90
8709;DHT22;4391;48.678;9.280;2023-06-22T08:01:25;28.60;99.90
8709;DHT22;4391;48.678;9.280;2023-06-22T08:03:52;28.80;99.90
8709;DHT22;4391;48.678;9.280;2023-06-22T08:06:18;29.00;99.90
8709;DHT22;4391;48.678;9.280;2023-06-22T08:08:45;29.20;99.90
8709;DHT22;4391;48.678;9.280;2023-06-22T08:11:14;29.40;99.90
8709;DHT22;4391;48.678;9.280;2023-06-22T08:13:42;29.60;99.90
8709;DHT22;4391;48.678;9.280;2023-06-22T08:16:09;29.70;99.90
8709;DHT22;4391;48.678;9.280;2023-06-22T08:18:37;30.10;99.90
8709;DHT22;4391;48.678;9.280;2023-06-22T08:21:04;30.40;99.90
8709;DHT22;4391;48.678;9.280;2023-06-22T08:23:31;31.00;99.90
8709;DHT22;4391;48.678;9.280;2023-06-22T08:25:58;31.30;99.90
8709;DHT22;4391;48.678;9.280;2023-06-22T08:28:24;31.20;99.90
8709;DHT22;4391;48.678;9.280;2023-06-22T08:30:51;31.10;99.90
8709;DHT22;4391;48.678;9.280;2023-06-22T08:33:18;31.30;99.90
8709;DHT22;4391;48.678;9.280;2023-06-22T08:35:47;31.30;99.90
8709;DHT22;4391;48.678;9.280;2023-06-22T08:38:14;31.40;99.90
8709;DHT22;4391;48.678;9.280;2023-06-22T08:40:43;31.30;99.90
8709;DHT22;4391;48.678;9.280;2023-06-22T08:43:10;31.30;99.90
8709;DHT22;4391;48.678;9.280;2023-06-22T08:45:37;31.30;99.90
8709;DHT22;4391;48.678;9.280;2023-06-22T08:48:04;31.00;99.90
8709;DHT22;4391;48.678;9.280;2023-06-22T08:50:31;31.10;99.90
8709;DHT22;4391;48.678;9.280;2023-06-22T08:52:59;31.60;99.90
8709;DHT22;4391;48.678;9.280;2023-06-22T08:55:26;32.40;99.90
8709;DHT22;4391;48.678;9.280;2023-06-22T08:57:53;32.80;99.90
8709;DHT22;4391;48.678;9.280;2023-06-22T09:00:20;32.40;99.90
8709;DHT22;4391;48.678;9.280;2023-06-22T09:02:47;32.10;99.90
8709;DHT22;4391;48.678;9.280;2023-06-22T09:05:15;32.00;99.90
8709;DHT22;4391;48.678;9.280;2023-06-22T09:07:42;32.10;99.90
8709;DHT22;4391;48.678;9.280;2023-06-22T09:10:11;32.30;99.90
8709;DHT22;4391;48.678;9.280;2023-06-22T09:12:39;32.40;99.90
8709;DHT22;4391;48.678;9.280;2023-06-22T09:15:07;32.80;99.90
8709;DHT22;4391;48.678;9.280;2023-06-22T09:17:34;33.20;99.90
8709;DHT22;4391;48.678;9.280;2023-06-22T09:20:02;33.50;99.90
8709;DHT22;4391;48.678;9.280;2023-06-22T09:22:31;33.00;99.90
8709;DHT22;4391;48.678;9.280;2023-06-22T09:24:58;33.00;99.90
8709;DHT22;4391;48.678;9.280;2023-06-22T09:27:27;32.90;99.90
8709;DHT22;4391;48.678;9.280;2023-06-22T09:29:54;32.90;99.90
8709;DHT22;4391;48.678;9.280;2023-06-22T09:32:23;33.10;99.90
8709;DHT22;4391;48.678;9.280;2023-06-22T09:34:50;33.40;99.90
8709;DHT22;4391;48.678;9.280;2023-06-22T09:37:18;33.60;99.90
8709;DHT22;4391;48.678;9.280;2023-06-22T09:39:45;33.60;99.90
8709;DHT22;4391;48.678;9.280;2023-06-22T09:42:12;33.10;99.90
8709;DHT22;4391;48.678;9.280;2023-06-22T09:44:41;32.70;99.90
8709;DHT22;4391;48.678;9.280;2023-06-22T09:47:07;32.80;99.90
8709;DHT22;4391;48.678;9.280;2023-06-22T09:49:34;33.30;99.90
8709;DHT22;4391;48.678;9.280;2023-06-22T09:52:01;33.70;99.90
8709;DHT22;4391;48.678;9.280;2023-06-22T09:54:28;34.00;99.90
8709;DHT22;4391;48.678;9.280;2023-06-22T09:56:55;34.00;99.90
8709;DHT22;4391;48.678;9.280;2023-06-22T09:59:22;34.10;99.90
8709;DHT22;4391;48.678;9.280;2023-06-22T10:01:50;33.60;99.90
8709;DHT22;4391;48.678;9.280;2023-06-22T10:04:17;33.20;99.90
8709;DHT22;4391;48.678;9.280;2023-06-22T10:06:43;33.60;99.90
8709;DHT22;4391;48.678;9.280;2023-06-22T10:09:10;34.40;99.90
8709;DHT22;4391;48.678;9.280;2023-06-22T10:11:37;34.80;99.90
8709;DHT22;4391;48.678;9.280;2023-06-22T10:14:04;34.90;99.90
8709;DHT22;4391;48.678;9.280;2023-06-22T10:16:32;34.60;99.90
8709;DHT22;4391;48.678;9.280;2023-06-22T10:19:00;34.40;99.90
8709;DHT22;4391;48.678;9.280;2023-06-22T10:21:27;34.20;99.90
8709;DHT22;4391;48.678;9.280;2023-06-22T10:23:54;33.80;99.90
8709;DHT22;4391;48.678;9.280;2023-06-22T10:26:21;33.40;99.90
8709;DHT22;4391;48.678;9.280;2023-06-22T10:28:48;33.10;99.90
8709;DHT22;4391;48.678;9.280;2023-06-22T10:31:15;33.60;99.90
8709;DHT22;4391;48.678;9.280;2023-06-22T10:33:42;34.30;99.90
8709;DHT22;4391;48.678;9.280;2023-06-22T10:36:11;34.80;99.90
8709;DHT22;4391;48.678;9.280;2023-06-22T10:38:37;35.30;99.90
8709;DHT22;4391;48.678;9.280;2023-06-22T10:41:04;35.90;99.90
8709;DHT22;4391;48.678;9.280;2023-06-22T10:43:31;35.80;99.90
8709;DHT22;4391;48.678;9.280;2023-06-22T10:45:58;36.00;99.90
8709;DHT22;4391;48.678;9.280;2023-06-22T10:48:25;36.30;99.90
8709;DHT22;4391;48.678;9.280;2023-06-22T10:50:52;36.70;99.90
8709;DHT22;4391;48.678;9.280;2023-06-22T10:53:21;36.40;99.90
8709;DHT22;4391;48.678;9.280;2023-06-22T10:55:48;35.90;99.90
8709;DHT22;4391;48.678;9.280;2023-06-22T10:58:15;35.30;99.90
8709;DHT22;4391;48.678;9.280;2023-06-22T11:00:42;34.90;99.90
8709;DHT22;4391;48.678;9.280;2023-06-22T11:03:08;34.90;99.90
8709;DHT22;4391;48.678;9.280;2023-06-22T11:05:35;34.60;99.90
8709;DHT22;4391;48.678;9.280;2023-06-22T11:08:02;34.50;99.90
8709;DHT22;4391;48.678;9.280;2023-06-22T11:10:30;34.40;99.90
8709;DHT22;4391;48.678;9.280;2023-06-22T11:12:57;34.50;99.90
8709;DHT22;4391;48.678;9.280;2023-06-22T11:15:24;34.40;99.90
8709;DHT22;4391;48.678;9.280;2023-06-22T11:17:51;34.20;99.90
8709;DHT22;4391;48.678;9.280;2023-06-22T11:20:18;34.20;99.90
8709;DHT22;4391;48.678;9.280;2023-06-22T11:22:45;34.60;99.90
8709;DHT22;4391;48.678;9.280;2023-06-22T11:25:12;34.60;99.90
8709;DHT22;4391;48.678;9.280;2023-06-22T11:27:40;34.50;99.90
8709;DHT22;4391;48.678;9.280;2023-06-22T11:30:08;34.60;99.90
8709;DHT22;4391;48.678;9.280;2023-06-22T11:32:35;34.70;99.90
8709;DHT22;4391;48.678;9.280;2023-06-22T11:35:02;35.00;99.90
8709;DHT22;4391;48.678;9.280;2023-06-22T11:37:29;35.20;99.90
8709;DHT22;4391;48.678;9.280;2023-06-22T11:39:56;35.60;99.90
8709;DHT22;4391;48.678;9.280;2023-06-22T11:42:23;35.80;99.90
8709;DHT22;4391;48.678;9.280;2023-06-22T11:44:52;36.10;99.90
8709;DHT22;4391;48.678;9.280;2023-06-22T11:47:18;36.00;99.90
8709;DHT22;4391;48.678;9.280;2023-06-22T11:49:45;35.40;99.90
8709;DHT22;4391;48.678;9.280;2023-06-22T11:52:12;34.70;99.90
8709;DHT22;4391;48.678;9.280;2023-06-22T11:54:39;34.10;99.90
8709;DHT22;4391;48.678;9.280;2023-06-22T11:57:06;33.80;99.90
8709;DHT22;4391;48.678;9.280;2023-06-22T11:59:33;33.60;99.90
8709;DHT22;4391;48.678;9.280;2023-06-22T12:02:02;33.10;99.90
8709;DHT22;4391;48.678;9.280;2023-06-22T12:04:29;33.20;99.90
8709;DHT22;4391;48.678;9.280;2023-06-22T12:06:56;33.60;99.90
8709;DHT22;4391;48.678;9.280;2023-06-22T12:09:24;33.80;99.90
8709;DHT22;4391;48.678;9.280;2023-06-22T12:11:50;33.90;99.90
8709;DHT22;4391;48.678;9.280;2023-06-22T12:14:18;33.90;99.90
8709;DHT22;4391;48.678;9.280;2023-06-22T12:16:44;34.00;99.90
8709;DHT22;4391;48.678;9.280;2023-06-22T12:19:13;33.90;99.90
8709;DHT22;4391;48.678;9.280;2023-06-22T12:21:39;33.90;99.90
8709;DHT22;4391;48.678;9.280;2023-06-22T12:24:07;34.00;99.90
8709;DHT22;4391;48.678;9.280;2023-06-22T12:26:36;34.10;99.90
8709;DHT22;4391;48.678;9.280;2023-06-22T12:29:03;33.80;99.90
8709;DHT22;4391;48.678;9.280;2023-06-22T12:31:30;33.60;99.90
8709;DHT22;4391;48.678;9.280;2023-06-22T12:33:57;33.10;99.90
8709;DHT22;4391;48.678;9.280;2023-06-22T12:36:25;32.80;99.90
8709;DHT22;4391;48.678;9.280;2023-06-22T12:38:51;32.60;99.90
8709;DHT22;4391;48.678;9.280;2023-06-22T12:41:18;32.20;99.90
8709;DHT22;4391;48.678;9.280;2023-06-22T12:43:46;32.00;99.90
8709;DHT22;4391;48.678;9.280;2023-06-22T12:46:12;31.90;99.90
8709;DHT22;4391;48.678;9.280;2023-06-22T12:48:39;31.70;99.90
8709;DHT22;4391;48.678;9.280;2023-06-22T12:51:09;31.70;99.90
8709;DHT22;4391;48.678;9.280;2023-06-22T12:53:37;31.80;99.90
8709;DHT22;4391;48.678;9.280;2023-06-22T12:56:04;31.80;99.90
8709;DHT22;4391;48.678;9.280;2023-06-22T12:58:31;31.80;99.90
8709;DHT22;4391;48.678;9.280;2023-06-22T13:00:58;31.90;99.90
8709;DHT22;4391;48.678;9.280;2023-06-22T13:03:24;31.90;99.90
8709;DHT22;4391;48.678;9.280;2023-06-22T13:05:56;31.80;99.90
8709;DHT22;4391;48.678;9.280;2023-06-22T13:08:22;31.80;99.90
8709;DHT22;4391;48.678;9.280;2023-06-22T13:10:50;31.80;99.90
8709;DHT22;4391;48.678;9.280;2023-06-22T13:13:17;31.80;99.90
8709;DHT22;4391;48.678;9.280;2023-06-22T13:15:44;31.90;99.90
8709;DHT22;4391;48.678;9.280;2023-06-22T13:18:13;31.90;99.90
8709;DHT22;4391;48.678;9.280;2023-06-22T13:20:40;31.90;99.90
8709;DHT22;4391;48.678;9.280;2023-06-22T13:23:08;32.00;99.90
8709;DHT22;4391;48.678;9.280;2023-06-22T13:25:35;32.50;99.90
8709;DHT22;4391;48.678;9.280;2023-06-22T13:28:03;33.10;99.90
8709;DHT22;4391;48.678;9.280;2023-06-22T13:30:30;33.50;99.90
8709;DHT22;4391;48.678;9.280;2023-06-22T13:32:57;33.50;99.90
8709;DHT22;4391;48.678;9.280;2023-06-22T13:35:24;33.40;99.90
8709;DHT22;4391;48.678;9.280;2023-06-22T13:37:51;33.20;99.90
8709;DHT22;4391;48.678;9.280;2023-06-22T13:40:18;32.90;99.90
8709;DHT22;4391;48.678;9.280;2023-06-22T13:42:48;32.70;99.90
8709;DHT22;4391;48.678;9.280;2023-06-22T13:45:16;32.90;99.90
8709;DHT22;4391;48.678;9.280;2023-06-22T13:47:44;33.40;99.90
8709;DHT22;4391;48.678;9.280;2023-06-22T13:50:11;33.90;99.90
8709;DHT22;4391;48.678;9.280;2023-06-22T13:52:39;34.20;99.90
8709;DHT22;4391;48.678;9.280;2023-06-22T13:55:06;34.30;99.90
8709;DHT22;4391;48.678;9.280;2023-06-22T13:57:33;34.60;99.90
8709;DHT22;4391;48.678;9.280;2023-06-22T14:00:00;34.90;99.90
8709;DHT22;4391;48.678;9.280;2023-06-22T14:02:28;35.20;99.90
8709;DHT22;4391;48.678;9.280;2023-06-22T14:04:55;35.50;99.90
8709;DHT22;4391;48.678;9.280;2023-06-22T14:07:22;35.70;99.90
8709;DHT22;4391;48.678;9.280;2023-06-22T14:09:49;35.60;99.90
8709;DHT22;4391;48.678;9.280;2023-06-22T14:12:16;35.40;99.90
8709;DHT22;4391;48.678;9.280;2023-06-22T14:14:44;35.00;99.90
8709;DHT22;4391;48.678;9.280;2023-06-22T14:17:11;34.50;99.90
8709;DHT22;4391;48.678;9.280;2023-06-22T14:19:40;34.10;99.90
8709;DHT22;4391;48.678;9.280;2023-06-22T14:22:07;33.90;99.90
8709;DHT22;4391;48.678;9.280;2023-06-22T14:24:34;33.70;99.90
8709;DHT22;4391;48.678;9.280;2023-06-22T14:27:01;33.60;99.90
8709;DHT22;4391;48.678;9.280;2023-06-22T14:29:29;33.80;99.90
8709;DHT22;4391;48.678;9.280;2023-06-22T14:31:56;34.00;99.90
8709;DHT22;4391;48.678;9.280;2023-06-22T14:34:22;34.10;99.90
8709;DHT22;4391;48.678;9.280;2023-06-22T14:36:51;34.50;99.90
8709;DHT22;4391;48.678;9.280;2023-06-22T14:39:17;35.70;99.90
8709;DHT22;4391;48.678;9.280;2023-06-22T14:41:46;36.50;99.90
8709;DHT22;4391;48.678;9.280;2023-06-22T14:44:13;37.10;99.90
8709;DHT22;4391;48.678;9.280;2023-06-22T14:46:39;37.20;99.90
8709;DHT22;4391;48.678;9.280;2023-06-22T14:49:06;36.80;99.90
8709;DHT22;4391;48.678;9.280;2023-06-22T14:51:33;36.30;99.90
8709;DHT22;4391;48.678;9.280;2023-06-22T14:54:02;36.40;99.90
8709;DHT22;4391;48.678;9.280;2023-06-22T14:56:28;36.30;99.90
8709;DHT22;4391;48.678;9.280;2023-06-22T14:58:56;36.30;99.90
8709;DHT22;4391;48.678;9.280;2023-06-22T15:01:22;35.80;99.90
8709;DHT22;4391;48.678;9.280;2023-06-22T15:03:49;35.30;99.90
8709;DHT22;4391;48.678;9.280;2023-06-22T15:06:16;34.80;99.90
8709;DHT22;4391;48.678;9.280;2023-06-22T15:08:43;34.30;99.90
8709;DHT22;4391;48.678;9.280;2023-06-22T15:11:11;33.90;99.90
8709;DHT22;4391;48.678;9.280;2023-06-22T15:13:39;33.70;99.90
8709;DHT22;4391;48.678;9.280;2023-06-22T15:16:06;33.60;99.90
8709;DHT22;4391;48.678;9.280;2023-06-22T15:18:34;33.40;99.90
8709;DHT22;4391;48.678;9.280;2023-06-22T15:21:02;33.30;99.90
8709;DHT22;4391;48.678;9.280;2023-06-22T15:23:29;33.20;99.90
8709;DHT22;4391;48.678;9.280;2023-06-22T15:25:56;33.00;99.90
8709;DHT22;4391;48.678;9.280;2023-06-22T15:28:24;32.90;99.90
8709;DHT22;4391;48.678;9.280;2023-06-22T15:30:51;32.70;99.90
8709;DHT22;4391;48.678;9.280;2023-06-22T15:33:18;32.40;99.90
8709;DHT22;4391;48.678;9.280;2023-06-22T15:35:45;32.10;99.90
8709;DHT22;4391;48.678;9.280;2023-06-22T15:38:12;31.90;99.90
8709;DHT22;4391;48.678;9.280;2023-06-22T15:40:39;31.70;99.90
8709;DHT22;4391;48.678;9.280;2023-06-22T15:43:10;31.60;99.90
8709;DHT22;4391;48.678;9.280;2023-06-22T15:45:38;31.40;99.90
8709;DHT22;4391;48.678;9.280;2023-06-22T15:48:05;31.30;99.90
8709;DHT22;4391;48.678;9.280;2023-06-22T15:50:32;31.30;99.90
8709;DHT22;4391;48.678;9.280;2023-06-22T15:52:59;31.20;99.90
8709;DHT22;4391;48.678;9.280;2023-06-22T15:55:25;31.20;99.90
8709;DHT22;4391;48.678;9.280;2023-06-22T15:57:54;31.20;99.90
8709;DHT22;4391;48.678;9.280;2023-06-22T16:00:21;31.30;99.90
8709;DHT22;4391;48.678;9.280;2023-06-22T16:02:49;31.20;99.90
8709;DHT22;4391;48.678;9.280;2023-06-22T16:05:16;31.10;99.90